sensor_id;sensor_type;location;lat;lon;timestamp;pressure;altitude;pressure_sealevel;temperature;humidity
63281;BME280;49406;51.044;3.766;2023-04-19T00:01:37;102595.44;;;9.42;100.00
63281;BME280;49406;51.044;3.766;2023-04-19T00:04:11;102593.83;;;9.46;100.00
63281;BME280;49406;51.044;3.766;2023-04-19T00:06:47;102592.94;;;9.45;100.00
63281;BME280;49406;51.044;3.766;2023-04-19T00:09:23;102592.70;;;9.43;100.00
63281;BME280;49406;51.044;3.766;2023-04-19T00:11:58;102590.14;;;9.41;100.00
63281;BME280;49406;51.044;3.766;2023-04-19T00:14:33;102587.02;;;9.46;100.00
63281;BME280;49406;51.044;3.766;2023-04-19T00:17:07;102590.34;;;9.41;100.00
63281;BME280;49406;51.044;3.766;2023-04-19T00:19:43;102592.98;;;9.29;100.00
63281;BME280;49406;51.044;3.766;2023-04-19T00:22:18;102594.41;;;9.21;100.00
63281;BME280;49406;51.044;3.766;2023-04-19T00:24:53;102593.66;;;9.20;100.00
63281;BME280;49406;51.044;3.766;2023-04-19T00:27:27;102591.52;;;9.15;100.00
63281;BME280;49406;51.044;3.766;2023-04-19T00:30:02;102593.96;;;9.07;100.00
63281;BME280;49406;51.044;3.766;2023-04-19T00:32:37;102592.44;;;9.04;100.00
63281;BME280;49406;51.044;3.766;2023-04-19T00:35:12;102584.80;;;9.04;100.00
63281;BME280;49406;51.044;3.766;2023-04-19T00:37:47;102586.23;;;9.05;100.00
63281;BME280;49406;51.044;3.766;2023-04-19T00:40:22;102585.02;;;8.97;100.00
63281;BME280;49406;51.044;3.766;2023-04-19T00:42:56;102592.64;;;8.96;100.00
63281;BME280;49406;51.044;3.766;2023-04-19T00:45:33;102591.16;;;9.02;100.00
63281;BME280;49406;51.044;3.766;2023-04-19T00:48:08;102590.42;;;9.01;100.00
63281;BME280;49406;51.044;3.766;2023-04-19T00:50:44;102591.89;;;8.95;100.00
63281;BME280;49406;51.044;3.766;2023-04-19T00:53:18;102589.81;;;8.87;100.00
63281;BME280;49406;51.044;3.766;2023-04-19T00:55:55;102587.46;;;8.89;100.00
63281;BME280;49406;51.044;3.766;2023-04-19T00:58:31;102583.95;;;8.89;100.00
63281;BME280;49406;51.044;3.766;2023-04-19T01:01:06;102581.91;;;8.82;100.00
63281;BME280;49406;51.044;3.766;2023-04-19T01:03:40;102583.36;;;8.79;100.00
63281;BME280;49406;51.044;3.766;2023-04-19T01:06:15;102586.10;;;8.86;100.00
63281;BME280;49406;51.044;3.766;2023-04-19T01:08:50;102587.17;;;8.91;100.00
63281;BME280;49406;51.044;3.766;2023-04-19T01:11:24;102585.89;;;8.93;100.00
63281;BME280;49406;51.044;3.766;2023-04-19T01:13:59;102582.86;;;8.88;100.00
63281;BME280;49406;51.044;3.766;2023-04-19T01:16:34;102585.35;;;8.77;100.00
63281;BME280;49406;51.044;3.766;2023-04-19T01:19:09;102581.77;;;8.74;100.00
63281;BME280;49406;51.044;3.766;2023-04-19T01:21:44;102579.74;;;8.80;100.00
63281;BME280;49406;51.044;3.766;2023-04-19T01:24:18;102577.05;;;8.78;100.00
63281;BME280;49406;51.044;3.766;2023-04-19T01:26:53;102573.11;;;8.72;100.00
63281;BME280;49406;51.044;3.766;2023-04-19T01:29:28;102571.38;;;8.64;100.00
63281;BME280;49406;51.044;3.766;2023-04-19T01:32:03;102570.59;;;8.66;100.00
63281;BME280;49406;51.044;3.766;2023-04-19T01:34:37;102569.23;;;8.67;100.00
63281;BME280;49406;51.044;3.766;2023-04-19T01:37:12;102570.01;;;8.64;100.00
63281;BME280;49406;51.044;3.766;2023-04-19T01:39:47;102569.98;;;8.56;100.00
63281;BME280;49406;51.044;3.766;2023-04-19T01:42:21;102568.38;;;8.51;100.00
63281;BME280;49406;51.044;3.766;2023-04-19T01:44:56;102569.26;;;8.56;100.00
63281;BME280;49406;51.044;3.766;2023-04-19T01:47:31;102569.95;;;8.52;100.00
63281;BME280;49406;51.044;3.766;2023-04-19T01:50:07;102568.52;;;8.39;100.00
63281;BME280;49406;51.044;3.766;2023-04-19T01:52:42;102572.59;;;8.33;100.00
63281;BME280;49406;51.044;3.766;2023-04-19T01:55:17;102575.05;;;8.37;100.00
63281;BME280;49406;51.044;3.766;2023-04-19T01:57:51;102573.77;;;8.32;100.00
63281;BME280;49406;51.044;3.766;2023-04-19T02:00:26;102571.80;;;8.24;100.00
63281;BME280;49406;51.044;3.766;2023-04-19T02:03:01;102570.16;;;8.14;100.00
63281;BME280;49406;51.044;3.766;2023-04-19T02:05:36;102565.36;;;8.16;100.00
63281;BME280;49406;51.044;3.766;2023-04-19T02:08:12;102561.58;;;8.13;100.00
63281;BME280;49406;51.044;3.766;2023-04-19T02:10:46;102558.45;;;8.06;100.00
63281;BME280;49406;51.044;3.766;2023-04-19T02:13:21;102550.02;;;7.97;100.00
63281;BME280;49406;51.044;3.766;2023-04-19T02:15:55;102550.27;;;7.98;100.00
63281;BME280;49406;51.044;3.766;2023-04-19T02:18:30;102560.30;;;8.00;100.00
63281;BME280;49406;51.044;3.766;2023-04-19T02:21:05;102549.27;;;7.92;100.00
63281;BME280;49406;51.044;3.766;2023-04-19T02:23:41;102550.19;;;7.85;100.00
63281;BME280;49406;51.044;3.766;2023-04-19T02:26:15;102546.80;;;7.80;100.00
63281;BME280;49406;51.044;3.766;2023-04-19T02:28:50;102551.39;;;7.85;100.00
63281;BME280;49406;51.044;3.766;2023-04-19T02:31:25;102544.70;;;7.84;100.00
63281;BME280;49406;51.044;3.766;2023-04-19T02:34:00;102541.55;;;7.79;100.00
63281;BME280;49406;51.044;3.766;2023-04-19T02:36:35;102541.21;;;7.72;100.00
63281;BME280;49406;51.044;3.766;2023-04-19T02:39:09;102539.34;;;7.66;100.00
63281;BME280;49406;51.044;3.766;2023-04-19T02:41:44;102545.92;;;7.73;100.00
63281;BME280;49406;51.044;3.766;2023-04-19T02:44:19;102541.65;;;7.74;100.00
63281;BME280;49406;51.044;3.766;2023-04-19T02:46:54;102542.85;;;7.70;100.00
63281;BME280;49406;51.044;3.766;2023-04-19T02:49:31;102533.87;;;7.61;100.00
63281;BME280;49406;51.044;3.766;2023-04-19T02:52:08;102536.66;;;7.53;100.00
63281;BME280;49406;51.044;3.766;2023-04-19T02:54:43;102537.92;;;7.58;100.00
63281;BME280;49406;51.044;3.766;2023-04-19T02:57:18;102537.28;;;7.59;100.00
63281;BME280;49406;51.044;3.766;2023-04-19T02:59:52;102539.40;;;7.52;100.00
63281;BME280;49406;51.044;3.766;2023-04-19T03:02:27;102537.99;;;7.44;100.00
63281;BME280;49406;51.044;3.766;2023-04-19T03:05:02;102538.19;;;7.41;100.00
63281;BME280;49406;51.044;3.766;2023-04-19T03:07:37;102531.91;;;7.45;100.00
63281;BME280;49406;51.044;3.766;2023-04-19T03:10:12;102531.73;;;7.56;100.00
63281;BME280;49406;51.044;3.766;2023-04-19T03:12:46;102531.84;;;7.58;100.00
63281;BME280;49406;51.044;3.766;2023-04-19T03:15:21;102534.21;;;7.60;100.00
63281;BME280;49406;51.044;3.766;2023-04-19T03:17:56;102527.79;;;7.61;100.00
63281;BME280;49406;51.044;3.766;2023-04-19T03:20:30;102528.59;;;7.67;100.00
63281;BME280;49406;51.044;3.766;2023-04-19T03:23:05;102529.65;;;7.82;100.00
63281;BME280;49406;51.044;3.766;2023-04-19T03:25:39;102526.59;;;7.91;100.00
63281;BME280;49406;51.044;3.766;2023-04-19T03:28:14;102528.71;;;7.99;100.00
63281;BME280;49406;51.044;3.766;2023-04-19T03:30:49;102532.80;;;8.01;100.00
63281;BME280;49406;51.044;3.766;2023-04-19T03:33:24;102529.82;;;8.04;100.00
63281;BME280;49406;51.044;3.766;2023-04-19T03:35:58;102523.95;;;8.13;100.00
63281;BME280;49406;51.044;3.766;2023-04-19T03:38:33;102527.65;;;8.26;100.00
63281;BME280;49406;51.044;3.766;2023-04-19T03:41:18;102524.11;;;8.29;100.00
63281;BME280;49406;51.044;3.766;2023-04-19T03:43:53;102526.70;;;8.32;100.00
63281;BME280;49406;51.044;3.766;2023-04-19T03:46:28;102527.30;;;8.33;100.00
63281;BME280;49406;51.044;3.766;2023-04-19T03:49:04;102534.35;;;8.47;100.00
63281;BME280;49406;51.044;3.766;2023-04-19T03:51:38;102531.58;;;8.55;100.00
63281;BME280;49406;51.044;3.766;2023-04-19T03:54:13;102528.95;;;8.58;100.00
63281;BME280;49406;51.044;3.766;2023-04-19T03:56:48;102529.73;;;8.61;100.00
63281;BME280;49406;51.044;3.766;2023-04-19T03:59:23;102528.52;;;8.65;100.00
63281;BME280;49406;51.044;3.766;2023-04-19T04:01:58;102532.55;;;8.78;100.00
63281;BME280;49406;51.044;3.766;2023-04-19T04:04:32;102529.52;;;8.80;100.00
63281;BME280;49406;51.044;3.766;2023-04-19T04:07:07;102526.17;;;8.79;100.00
63281;BME280;49406;51.044;3.766;2023-04-19T04:09:42;102526.88;;;8.80;100.00
63281;BME280;49406;51.044;3.766;2023-04-19T04:12:17;102523.83;;;8.86;100.00
63281;BME280;49406;51.044;3.766;2023-04-19T04:14:52;102523.24;;;8.92;100.00
63281;BME280;49406;51.044;3.766;2023-04-19T04:17:26;102524.39;;;8.95;100.00
63281;BME280;49406;51.044;3.766;2023-04-19T04:20:01;102526.23;;;8.93;100.00
63281;BME280;49406;51.044;3.766;2023-04-19T04:22:36;102526.84;;;8.91;100.00
63281;BME280;49406;51.044;3.766;2023-04-19T04:25:13;102523.95;;;8.93;100.00
63281;BME280;49406;51.044;3.766;2023-04-19T04:27:50;102522.92;;;9.02;100.00
63281;BME280;49406;51.044;3.766;2023-04-19T04:30:25;102525.46;;;9.04;100.00
63281;BME280;49406;51.044;3.766;2023-04-19T04:33:00;102524.09;;;9.01;100.00
63281;BME280;49406;51.044;3.766;2023-04-19T04:35:35;102527.12;;;9.02;100.00
63281;BME280;49406;51.044;3.766;2023-04-19T04:38:10;102528.27;;;9.13;100.00
63281;BME280;49406;51.044;3.766;2023-04-19T04:40:49;102530.70;;;9.17;100.00
63281;BME280;49406;51.044;3.766;2023-04-19T04:43:26;102529.12;;;9.17;100.00
63281;BME280;49406;51.044;3.766;2023-04-19T04:46:02;102533.30;;;9.16;100.00
63281;BME280;49406;51.044;3.766;2023-04-19T04:48:36;102529.34;;;9.22;100.00
63281;BME280;49406;51.044;3.766;2023-04-19T04:51:11;102531.70;;;9.32;100.00
63281;BME280;49406;51.044;3.766;2023-04-19T04:53:45;102530.07;;;9.36;100.00
63281;BME280;49406;51.044;3.766;2023-04-19T04:56:20;102528.08;;;9.39;100.00
63281;BME280;49406;51.044;3.766;2023-04-19T04:58:55;102530.41;;;9.53;100.00
63281;BME280;49406;51.044;3.766;2023-04-19T05:01:30;102533.20;;;9.71;100.00
63281;BME280;49406;51.044;3.766;2023-04-19T05:04:05;102534.55;;;9.83;100.00
63281;BME280;49406;51.044;3.766;2023-04-19T05:06:40;102535.21;;;9.87;100.00
63281;BME280;49406;51.044;3.766;2023-04-19T05:09:14;102533.90;;;9.85;100.00
63281;BME280;49406;51.044;3.766;2023-04-19T05:11:49;102536.47;;;9.97;100.00
63281;BME280;49406;51.044;3.766;2023-04-19T05:14:24;102536.89;;;9.99;100.00
63281;BME280;49406;51.044;3.766;2023-04-19T05:16:58;102541.02;;;10.02;100.00
63281;BME280;49406;51.044;3.766;2023-04-19T05:19:33;102541.38;;;10.03;100.00
63281;BME280;49406;51.044;3.766;2023-04-19T05:22:08;102540.31;;;10.11;100.00
63281;BME280;49406;51.044;3.766;2023-04-19T05:24:42;102543.42;;;10.19;100.00
63281;BME280;49406;51.044;3.766;2023-04-19T05:27:17;102543.32;;;10.25;100.00
63281;BME280;49406;51.044;3.766;2023-04-19T05:29:52;102549.98;;;10.25;100.00
63281;BME280;49406;51.044;3.766;2023-04-19T05:32:26;102550.02;;;10.41;100.00
63281;BME280;49406;51.044;3.766;2023-04-19T05:35:01;102550.51;;;10.65;100.00
63281;BME280;49406;51.044;3.766;2023-04-19T05:37:36;102553.27;;;10.84;100.00
63281;BME280;49406;51.044;3.766;2023-04-19T05:40:12;102555.57;;;11.00;100.00
63281;BME280;49406;51.044;3.766;2023-04-19T05:42:46;102561.36;;;11.21;100.00
63281;BME280;49406;51.044;3.766;2023-04-19T05:45:22;102560.11;;;11.48;100.00
63281;BME280;49406;51.044;3.766;2023-04-19T05:47:56;102563.81;;;11.70;100.00
63281;BME280;49406;51.044;3.766;2023-04-19T05:50:32;102566.83;;;11.88;99.87
63281;BME280;49406;51.044;3.766;2023-04-19T05:53:08;102568.36;;;12.10;99.17
63281;BME280;49406;51.044;3.766;2023-04-19T05:55:43;102567.36;;;12.29;97.66
63281;BME280;49406;51.044;3.766;2023-04-19T05:58:20;102573.33;;;12.43;96.53
63281;BME280;49406;51.044;3.766;2023-04-19T06:00:55;102573.42;;;12.45;95.95
63281;BME280;49406;51.044;3.766;2023-04-19T06:03:30;102572.33;;;12.50;95.58
63281;BME280;49406;51.044;3.766;2023-04-19T06:06:05;102572.42;;;12.54;95.22
63281;BME280;49406;51.044;3.766;2023-04-19T06:08:40;102576.42;;;12.72;94.08
63281;BME280;49406;51.044;3.766;2023-04-19T06:11:15;102576.98;;;12.79;93.60
63281;BME280;49406;51.044;3.766;2023-04-19T06:13:49;102580.28;;;12.78;93.02
63281;BME280;49406;51.044;3.766;2023-04-19T06:16:24;102578.13;;;12.82;93.50
63281;BME280;49406;51.044;3.766;2023-04-19T06:18:59;102577.59;;;12.95;93.06
63281;BME280;49406;51.044;3.766;2023-04-19T06:21:34;102576.14;;;13.01;92.01
63281;BME280;49406;51.044;3.766;2023-04-19T06:24:09;102579.83;;;12.94;92.48
63281;BME280;49406;51.044;3.766;2023-04-19T06:26:43;102580.86;;;12.67;93.55
63281;BME280;49406;51.044;3.766;2023-04-19T06:29:19;102580.22;;;12.44;94.96
63281;BME280;49406;51.044;3.766;2023-04-19T06:31:56;102575.39;;;12.28;95.99
63281;BME280;49406;51.044;3.766;2023-04-19T06:34:30;102580.05;;;12.20;97.10
63281;BME280;49406;51.044;3.766;2023-04-19T06:37:05;102573.49;;;12.17;97.07
63281;BME280;49406;51.044;3.766;2023-04-19T06:39:40;102574.02;;;12.05;97.98
63281;BME280;49406;51.044;3.766;2023-04-19T06:42:15;102568.81;;;11.95;98.86
63281;BME280;49406;51.044;3.766;2023-04-19T06:44:51;102573.81;;;11.99;98.78
63281;BME280;49406;51.044;3.766;2023-04-19T06:47:27;102569.39;;;11.97;99.34
63281;BME280;49406;51.044;3.766;2023-04-19T06:50:01;102569.73;;;11.97;99.76
63281;BME280;49406;51.044;3.766;2023-04-19T06:52:36;102570.40;;;11.95;99.63
63281;BME280;49406;51.044;3.766;2023-04-19T06:55:11;102563.20;;;11.95;99.50
63281;BME280;49406;51.044;3.766;2023-04-19T06:57:46;102563.86;;;12.00;99.41
63281;BME280;49406;51.044;3.766;2023-04-19T07:00:22;102564.05;;;12.00;99.63
63281;BME280;49406;51.044;3.766;2023-04-19T07:02:57;102561.04;;;12.05;99.66
63281;BME280;49406;51.044;3.766;2023-04-19T07:05:33;102561.40;;;12.18;99.08
63281;BME280;49406;51.044;3.766;2023-04-19T07:08:09;102565.91;;;12.22;97.99
63281;BME280;49406;51.044;3.766;2023-04-19T07:10:44;102562.79;;;12.23;98.08
63281;BME280;49406;51.044;3.766;2023-04-19T07:13:19;102564.39;;;12.29;97.88
63281;BME280;49406;51.044;3.766;2023-04-19T07:15:53;102563.09;;;12.52;96.77
63281;BME280;49406;51.044;3.766;2023-04-19T07:18:28;102560.48;;;12.59;95.53
63281;BME280;49406;51.044;3.766;2023-04-19T07:21:03;102562.34;;;12.70;96.12
63281;BME280;49406;51.044;3.766;2023-04-19T07:23:38;102555.98;;;12.81;95.69
63281;BME280;49406;51.044;3.766;2023-04-19T07:26:12;102563.34;;;13.01;94.83
63281;BME280;49406;51.044;3.766;2023-04-19T07:28:47;102558.86;;;13.32;93.51
63281;BME280;49406;51.044;3.766;2023-04-19T07:31:22;102560.52;;;13.34;90.15
63281;BME280;49406;51.044;3.766;2023-04-19T07:33:58;102553.55;;;13.45;89.72
63281;BME280;49406;51.044;3.766;2023-04-19T07:36:32;102555.17;;;13.78;88.75
63281;BME280;49406;51.044;3.766;2023-04-19T07:39:09;102558.66;;;14.16;87.43
63281;BME280;49406;51.044;3.766;2023-04-19T07:41:42;102560.48;;;14.44;85.07
63281;BME280;49406;51.044;3.766;2023-04-19T07:44:17;102568.16;;;14.68;84.18
63281;BME280;49406;51.044;3.766;2023-04-19T07:46:52;102566.44;;;14.80;82.11
63281;BME280;49406;51.044;3.766;2023-04-19T07:49:26;102562.17;;;14.87;81.09
63281;BME280;49406;51.044;3.766;2023-04-19T07:52:08;102560.48;;;14.91;79.67
63281;BME280;49406;51.044;3.766;2023-04-19T07:54:41;102556.32;;;15.05;79.50
63281;BME280;49406;51.044;3.766;2023-04-19T07:57:16;102557.81;;;15.31;79.11
63281;BME280;49406;51.044;3.766;2023-04-19T07:59:51;102557.91;;;15.38;78.34
63281;BME280;49406;51.044;3.766;2023-04-19T08:02:30;102554.14;;;15.44;77.28
63281;BME280;49406;51.044;3.766;2023-04-19T08:05:05;102559.11;;;15.46;76.66
63281;BME280;49406;51.044;3.766;2023-04-19T08:07:40;102559.02;;;15.52;76.44
63281;BME280;49406;51.044;3.766;2023-04-19T08:10:16;102561.03;;;15.57;75.85
63281;BME280;49406;51.044;3.766;2023-04-19T08:12:51;102558.16;;;15.63;75.17
63281;BME280;49406;51.044;3.766;2023-04-19T08:15:26;102557.75;;;15.72;75.39
63281;BME280;49406;51.044;3.766;2023-04-19T08:18:00;102560.45;;;15.88;74.46
63281;BME280;49406;51.044;3.766;2023-04-19T08:20:36;102556.55;;;16.00;74.46
63281;BME280;49406;51.044;3.766;2023-04-19T08:23:15;102557.25;;;16.13;72.58
63281;BME280;49406;51.044;3.766;2023-04-19T08:25:49;102554.29;;;16.02;72.76
63281;BME280;49406;51.044;3.766;2023-04-19T08:28:24;102551.89;;;16.08;74.00
63281;BME280;49406;51.044;3.766;2023-04-19T08:30:59;102557.13;;;16.17;72.77
63281;BME280;49406;51.044;3.766;2023-04-19T08:33:33;102561.89;;;16.32;73.18
63281;BME280;49406;51.044;3.766;2023-04-19T08:36:09;102560.98;;;16.29;72.69
63281;BME280;49406;51.044;3.766;2023-04-19T08:38:44;102561.04;;;16.20;72.63
63281;BME280;49406;51.044;3.766;2023-04-19T08:41:19;102560.95;;;16.41;72.53
63281;BME280;49406;51.044;3.766;2023-04-19T08:43:58;102556.98;;;16.51;71.17
63281;BME280;49406;51.044;3.766;2023-04-19T08:46:34;102561.52;;;16.61;71.54
63281;BME280;49406;51.044;3.766;2023-04-19T08:49:09;102560.40;;;16.69;70.97
63281;BME280;49406;51.044;3.766;2023-04-19T08:51:44;102561.35;;;16.77;69.53
63281;BME280;49406;51.044;3.766;2023-04-19T08:54:21;102565.11;;;17.00;69.27
63281;BME280;49406;51.044;3.766;2023-04-19T08:56:57;102557.41;;;17.10;67.46
63281;BME280;49406;51.044;3.766;2023-04-19T08:59:32;102557.21;;;17.07;68.74
63281;BME280;49406;51.044;3.766;2023-04-19T09:02:08;102551.64;;;17.41;69.24
63281;BME280;49406;51.044;3.766;2023-04-19T09:04:42;102553.06;;;17.66;67.27
63281;BME280;49406;51.044;3.766;2023-04-19T09:07:25;102551.19;;;17.52;65.54
63281;BME280;49406;51.044;3.766;2023-04-19T09:10:08;102546.58;;;17.49;66.65
63281;BME280;49406;51.044;3.766;2023-04-19T09:12:58;102543.95;;;17.54;65.57
63281;BME280;49406;51.044;3.766;2023-04-19T09:15:38;102540.73;;;17.49;65.18
63281;BME280;49406;51.044;3.766;2023-04-19T09:18:13;102537.46;;;17.61;65.36
63281;BME280;49406;51.044;3.766;2023-04-19T09:20:48;102534.65;;;17.94;65.19
63281;BME280;49406;51.044;3.766;2023-04-19T09:23:29;102539.53;;;17.78;64.12
63281;BME280;49406;51.044;3.766;2023-04-19T09:26:04;102533.66;;;17.73;64.61
63281;BME280;49406;51.044;3.766;2023-04-19T09:28:39;102531.98;;;17.89;64.58
63281;BME280;49406;51.044;3.766;2023-04-19T09:31:13;102533.41;;;17.94;62.46
63281;BME280;49406;51.044;3.766;2023-04-19T09:33:49;102533.83;;;18.09;63.47
63281;BME280;49406;51.044;3.766;2023-04-19T09:36:29;102531.60;;;18.22;63.12
63281;BME280;49406;51.044;3.766;2023-04-19T09:39:04;102530.70;;;18.23;61.08
63281;BME280;49406;51.044;3.766;2023-04-19T09:41:51;102523.64;;;18.27;61.36
63281;BME280;49406;51.044;3.766;2023-04-19T09:44:26;102526.11;;;18.28;60.87
63281;BME280;49406;51.044;3.766;2023-04-19T09:47:01;102526.61;;;18.18;59.99
63281;BME280;49406;51.044;3.766;2023-04-19T09:49:35;102524.07;;;18.00;59.73
63281;BME280;49406;51.044;3.766;2023-04-19T09:52:10;102522.96;;;17.91;61.21
63281;BME280;49406;51.044;3.766;2023-04-19T09:54:47;102523.52;;;17.96;61.39
63281;BME280;49406;51.044;3.766;2023-04-19T09:57:22;102519.14;;;18.08;61.45
63281;BME280;49406;51.044;3.766;2023-04-19T09:59:56;102516.35;;;18.21;60.42
63281;BME280;49406;51.044;3.766;2023-04-19T10:02:32;102521.34;;;18.31;60.13
63281;BME280;49406;51.044;3.766;2023-04-19T10:05:08;102515.88;;;18.42;58.88
63281;BME280;49406;51.044;3.766;2023-04-19T10:07:44;102504.88;;;18.31;58.47
63281;BME280;49406;51.044;3.766;2023-04-19T10:10:18;102510.55;;;18.34;58.30
63281;BME280;49406;51.044;3.766;2023-04-19T10:12:56;102504.02;;;18.39;57.58
63281;BME280;49406;51.044;3.766;2023-04-19T10:15:33;102497.46;;;18.40;57.87
63281;BME280;49406;51.044;3.766;2023-04-19T10:18:09;102494.77;;;18.28;58.48
63281;BME280;49406;51.044;3.766;2023-04-19T10:20:48;102493.73;;;18.32;57.56
63281;BME280;49406;51.044;3.766;2023-04-19T10:23:25;102487.04;;;18.51;58.10
63281;BME280;49406;51.044;3.766;2023-04-19T10:26:00;102489.73;;;18.62;58.03
63281;BME280;49406;51.044;3.766;2023-04-19T10:28:36;102480.88;;;18.83;57.29
63281;BME280;49406;51.044;3.766;2023-04-19T10:31:12;102482.84;;;18.91;55.93
63281;BME280;49406;51.044;3.766;2023-04-19T10:33:48;102475.75;;;18.82;55.69
63281;BME280;49406;51.044;3.766;2023-04-19T10:36:23;102482.30;;;18.81;54.69
63281;BME280;49406;51.044;3.766;2023-04-19T10:39:00;102478.59;;;18.88;55.02
63281;BME280;49406;51.044;3.766;2023-04-19T10:41:58;102478.05;;;18.76;55.53
63281;BME280;49406;51.044;3.766;2023-04-19T10:44:33;102476.76;;;18.53;55.72
63281;BME280;49406;51.044;3.766;2023-04-19T10:47:08;102468.63;;;18.57;55.46
63281;BME280;49406;51.044;3.766;2023-04-19T10:49:46;102468.77;;;18.36;56.18
63281;BME280;49406;51.044;3.766;2023-04-19T10:52:30;102471.73;;;18.12;56.03
63281;BME280;49406;51.044;3.766;2023-04-19T10:55:07;102463.89;;;17.98;56.75
63281;BME280;49406;51.044;3.766;2023-04-19T10:58:03;102457.24;;;18.28;57.07
63281;BME280;49406;51.044;3.766;2023-04-19T11:00:36;102452.54;;;18.85;57.16
63281;BME280;49406;51.044;3.766;2023-04-19T11:03:52;102449.52;;;19.04;54.62
63281;BME280;49406;51.044;3.766;2023-04-19T11:06:27;102455.89;;;18.65;54.58
63281;BME280;49406;51.044;3.766;2023-04-19T11:09:02;102451.42;;;18.36;56.10
63281;BME280;49406;51.044;3.766;2023-04-19T11:11:38;102450.19;;;18.48;56.47
63281;BME280;49406;51.044;3.766;2023-04-19T11:14:14;102451.77;;;18.44;56.23
63281;BME280;49406;51.044;3.766;2023-04-19T11:16:49;102446.46;;;18.44;56.24
63281;BME280;49406;51.044;3.766;2023-04-19T11:19:24;102444.50;;;18.35;55.91
63281;BME280;49406;51.044;3.766;2023-04-19T11:21:59;102443.95;;;18.23;56.66
63281;BME280;49406;51.044;3.766;2023-04-19T11:24:35;102439.55;;;18.31;56.04
63281;BME280;49406;51.044;3.766;2023-04-19T11:27:09;102429.05;;;18.06;56.86
63281;BME280;49406;51.044;3.766;2023-04-19T11:29:44;102435.53;;;17.84;56.44
63281;BME280;49406;51.044;3.766;2023-04-19T11:32:21;102428.44;;;17.81;57.00
63281;BME280;49406;51.044;3.766;2023-04-19T11:34:56;102421.80;;;18.12;56.61
63281;BME280;49406;51.044;3.766;2023-04-19T11:37:34;102424.70;;;18.61;57.35
63281;BME280;49406;51.044;3.766;2023-04-19T11:40:12;102421.16;;;18.92;54.23
63281;BME280;49406;51.044;3.766;2023-04-19T11:42:54;102420.58;;;19.18;53.91
63281;BME280;49406;51.044;3.766;2023-04-19T11:45:30;102424.48;;;19.14;52.26
63281;BME280;49406;51.044;3.766;2023-04-19T11:48:12;102424.01;;;18.76;52.93
63281;BME280;49406;51.044;3.766;2023-04-19T11:50:47;102418.16;;;18.72;53.22
63281;BME280;49406;51.044;3.766;2023-04-19T11:53:23;102420.98;;;18.85;53.65
63281;BME280;49406;51.044;3.766;2023-04-19T11:56:04;102418.34;;;18.74;52.80
63281;BME280;49406;51.044;3.766;2023-04-19T11:58:42;102420.96;;;18.36;52.66
63281;BME280;49406;51.044;3.766;2023-04-19T12:01:19;102414.92;;;18.30;53.08
63281;BME280;49406;51.044;3.766;2023-04-19T12:03:55;102409.27;;;18.32;52.61
63281;BME280;49406;51.044;3.766;2023-04-19T12:06:30;102411.38;;;18.18;52.92
63281;BME280;49406;51.044;3.766;2023-04-19T12:09:07;102410.78;;;17.93;53.00
63281;BME280;49406;51.044;3.766;2023-04-19T12:11:46;102405.30;;;17.92;53.43
63281;BME280;49406;51.044;3.766;2023-04-19T12:14:22;102404.44;;;18.02;53.81
63281;BME280;49406;51.044;3.766;2023-04-19T12:17:09;102405.73;;;18.30;52.48
63281;BME280;49406;51.044;3.766;2023-04-19T12:19:45;102400.24;;;18.41;51.59
63281;BME280;49406;51.044;3.766;2023-04-19T12:22:20;102389.63;;;18.38;51.40
63281;BME280;49406;51.044;3.766;2023-04-19T12:24:56;102388.74;;;18.57;51.33
63281;BME280;49406;51.044;3.766;2023-04-19T12:27:31;102393.86;;;18.92;49.21
63281;BME280;49406;51.044;3.766;2023-04-19T12:30:07;102386.04;;;19.06;48.81
63281;BME280;49406;51.044;3.766;2023-04-19T12:32:42;102386.02;;;19.16;47.89
63281;BME280;49406;51.044;3.766;2023-04-19T12:35:17;102383.37;;;19.09;47.16
63281;BME280;49406;51.044;3.766;2023-04-19T12:37:53;102376.80;;;19.12;46.11
63281;BME280;49406;51.044;3.766;2023-04-19T12:40:28;102375.88;;;19.27;46.74
63281;BME280;49406;51.044;3.766;2023-04-19T12:43:04;102375.42;;;19.53;45.13
63281;BME280;49406;51.044;3.766;2023-04-19T12:45:39;102370.06;;;19.63;43.21
63281;BME280;49406;51.044;3.766;2023-04-19T12:48:13;102368.11;;;19.66;42.62
63281;BME280;49406;51.044;3.766;2023-04-19T12:50:48;102369.77;;;19.51;41.20
63281;BME280;49406;51.044;3.766;2023-04-19T12:53:23;102368.99;;;19.17;41.23
63281;BME280;49406;51.044;3.766;2023-04-19T12:55:57;102363.16;;;19.08;41.69
63281;BME280;49406;51.044;3.766;2023-04-19T12:58:32;102362.80;;;19.15;39.80
63281;BME280;49406;51.044;3.766;2023-04-19T13:01:07;102359.03;;;19.24;40.16
63281;BME280;49406;51.044;3.766;2023-04-19T13:03:41;102359.77;;;19.14;38.80
63281;BME280;49406;51.044;3.766;2023-04-19T13:06:16;102355.23;;;18.89;39.13
63281;BME280;49406;51.044;3.766;2023-04-19T13:08:51;102352.42;;;18.77;38.65
63281;BME280;49406;51.044;3.766;2023-04-19T13:11:25;102347.29;;;18.85;38.29
63281;BME280;49406;51.044;3.766;2023-04-19T13:14:00;102349.72;;;18.97;38.32
63281;BME280;49406;51.044;3.766;2023-04-19T13:16:35;102342.95;;;19.13;38.09
63281;BME280;49406;51.044;3.766;2023-04-19T13:19:09;102345.84;;;18.94;37.04
63281;BME280;49406;51.044;3.766;2023-04-19T13:21:44;102339.81;;;18.87;36.67
63281;BME280;49406;51.044;3.766;2023-04-19T13:24:19;102342.48;;;18.86;36.23
63281;BME280;49406;51.044;3.766;2023-04-19T13:26:54;102336.30;;;18.77;35.81
63281;BME280;49406;51.044;3.766;2023-04-19T13:29:28;102333.30;;;18.59;36.11
63281;BME280;49406;51.044;3.766;2023-04-19T13:32:04;102330.48;;;18.67;36.86
63281;BME280;49406;51.044;3.766;2023-04-19T13:34:44;102336.66;;;18.42;35.43